createdAt,value
2022-09-22T00:02:51.737Z,101347.34
2022-09-22T00:06:53.268Z,101347.69
2022-09-22T00:11:08.837Z,101342.28
2022-09-22T00:15:11.217Z,101338.75
2022-09-22T00:19:21.927Z,101340.44
2022-09-22T00:23:27.196Z,101344.38
2022-09-22T00:27:28.667Z,101339.78
2022-09-22T00:31:30.574Z,101343.94
2022-09-22T00:35:32.143Z,101343.06
2022-09-22T00:39:33.657Z,101331.13
2022-09-22T00:43:36.896Z,101344.75
2022-09-22T00:47:44.345Z,101342.06
2022-09-22T00:51:45.924Z,101341.00
2022-09-22T00:55:49.826Z,101347.75
2022-09-22T00:59:53.016Z,101336.38
2022-09-22T01:03:56.261Z,101338.78
2022-09-22T01:07:57.719Z,101340.38
2022-09-22T01:12:01.247Z,101343.66
2022-09-22T01:16:28.982Z,101339.78
2022-09-22T01:20:45.509Z,101334.25
2022-09-22T01:24:49.904Z,101330.56
2022-09-22T01:29:07.167Z,101337.28
2022-09-22T01:33:39.936Z,101331.22
2022-09-22T01:38:16.106Z,101326.03
2022-09-22T01:42:29.438Z,101328.34
2022-09-22T01:46:36.524Z,101323.06
2022-09-22T01:50:44.245Z,101317.94
2022-09-22T01:54:53.212Z,101313.56
2022-09-22T01:58:59.956Z,101313.34
2022-09-22T02:03:10.295Z,101310.44
2022-09-22T02:07:20.309Z,101316.84
2022-09-22T02:11:22.902Z,101304.56
2022-09-22T02:15:43.110Z,101307.88
2022-09-22T02:19:44.770Z,101298.56
2022-09-22T02:23:47.668Z,101310.38
2022-09-22T02:27:50.709Z,101303.19
2022-09-22T02:31:53.508Z,101315.19
2022-09-22T02:36:10.879Z,101296.38
2022-09-22T02:40:38.806Z,101311.25
2022-09-22T02:44:49.489Z,101305.16
2022-09-22T02:48:58.141Z,101302.47
2022-09-22T02:53:10.000Z,101302.47
2022-09-22T02:57:11.456Z,101299.84
2022-09-22T03:01:13.019Z,101303.69
2022-09-22T03:05:14.733Z,101297.28
2022-09-22T03:09:17.626Z,101309.31
2022-09-22T03:13:19.204Z,101306.75
2022-09-22T03:17:20.710Z,101294.72
2022-09-22T03:21:22.308Z,101298.56
2022-09-22T03:25:24.023Z,101293.38
2022-09-22T03:29:25.528Z,101299.22
2022-09-22T03:33:27.062Z,101292.25
2022-09-22T03:37:28.623Z,101294.72
2022-09-22T03:41:30.193Z,101294.38
2022-09-22T03:45:31.718Z,101290.47
2022-09-22T03:49:33.423Z,101284.50
2022-09-22T03:53:35.992Z,101289.59
2022-09-22T03:57:37.798Z,101285.75
2022-09-22T04:01:39.367Z,101289.34
2022-09-22T04:05:49.066Z,101282.28
2022-09-22T04:09:50.564Z,101277.34
2022-09-22T04:13:52.110Z,101269.94
2022-09-22T04:17:53.685Z,101269.31
2022-09-22T04:21:57.486Z,101275.38
2022-09-22T04:25:59.064Z,101270.38
2022-09-22T04:30:01.447Z,101278.91
2022-09-22T04:34:06.932Z,101271.63
2022-09-22T04:38:10.518Z,101287.72
2022-09-22T04:42:12.021Z,101286.16
2022-09-22T04:46:13.582Z,101276.81
2022-09-22T04:50:16.325Z,101284.41
2022-09-22T04:54:17.882Z,101269.84
2022-09-22T04:58:19.449Z,101280.88
2022-09-22T05:02:20.951Z,101291.91
2022-09-22T05:06:22.483Z,101283.25
2022-09-22T05:10:30.978Z,101292.50
2022-09-22T05:14:33.736Z,101301.66
2022-09-22T05:18:35.262Z,101296.31
2022-09-22T05:22:40.131Z,101297.16
2022-09-22T05:26:41.752Z,101296.47
2022-09-22T05:30:43.233Z,101307.31
2022-09-22T05:34:44.714Z,101306.44
2022-09-22T05:38:46.216Z,101302.47
2022-09-22T05:42:51.327Z,101309.53
2022-09-22T05:46:52.823Z,101311.56
2022-09-22T05:50:54.439Z,101304.13
2022-09-22T05:54:57.132Z,101311.97
2022-09-22T05:58:58.660Z,101311.41
2022-09-22T06:03:00.503Z,101308.16
2022-09-22T06:07:02.202Z,101302.34
2022-09-22T06:11:03.725Z,101304.91
2022-09-22T06:15:06.800Z,101311.78
2022-09-22T06:19:08.299Z,101306.69
2022-09-22T06:23:12.577Z,101311.25
2022-09-22T06:27:14.051Z,101317.94
2022-09-22T06:31:15.939Z,101314.75
2022-09-22T06:35:18.342Z,101309.84
2022-09-22T06:39:19.924Z,101312.00
2022-09-22T06:43:23.983Z,101297.88
2022-09-22T06:47:25.588Z,101303.97
2022-09-22T06:51:30.290Z,101313.00
2022-09-22T06:55:31.834Z,101307.44
2022-09-22T06:59:37.839Z,101307.50
2022-09-22T07:03:43.072Z,101311.72
2022-09-22T07:07:44.616Z,101310.41
2022-09-22T07:11:47.373Z,101308.22
2022-09-22T07:15:48.859Z,101302.81
2022-09-22T07:19:51.351Z,101301.44
2022-09-22T07:23:57.261Z,101294.16
2022-09-22T07:27:58.818Z,101298.63
2022-09-22T07:32:02.329Z,101295.50
2022-09-22T07:36:09.884Z,101294.22
2022-09-22T07:40:11.474Z,101290.53
2022-09-22T07:44:33.881Z,101295.44
2022-09-22T07:48:37.542Z,101287.22
2022-09-22T07:52:39.062Z,101290.44
2022-09-22T07:56:43.384Z,101288.16
2022-09-22T08:00:44.937Z,101294.84
2022-09-22T08:04:46.486Z,101304.13
2022-09-22T08:08:53.663Z,101299.59
2022-09-22T08:12:57.801Z,101303.31
2022-09-22T08:16:59.317Z,101296.16
2022-09-22T08:21:01.862Z,101291.88
2022-09-22T08:25:03.628Z,101295.16
2022-09-22T08:29:06.686Z,101290.69
2022-09-22T08:33:08.242Z,101283.72
2022-09-22T08:37:10.642Z,101281.00
2022-09-22T08:41:26.381Z,101277.66
2022-09-22T08:45:34.793Z,101273.25
2022-09-22T08:50:01.541Z,101269.63
2022-09-22T08:54:04.265Z,101270.22
2022-09-22T08:58:28.432Z,101268.19
2022-09-22T09:02:42.440Z,101266.91
2022-09-22T09:07:03.672Z,101265.63
2022-09-22T09:11:34.282Z,101267.91
2022-09-22T09:15:39.956Z,101265.78
2022-09-22T09:19:45.385Z,101252.69
2022-09-22T09:28:27.887Z,101255.00
2022-09-22T09:32:34.455Z,101257.19
2022-09-22T09:36:39.352Z,101255.88
2022-09-22T09:40:41.210Z,101255.41
2022-09-22T09:44:43.996Z,101256.66
2022-09-22T09:48:58.552Z,101251.84
2022-09-22T09:53:00.165Z,101247.97
2022-09-22T09:57:12.448Z,101247.56
2022-09-22T10:01:14.871Z,101239.56
2022-09-22T10:05:16.406Z,101236.63
2022-09-22T10:09:44.891Z,101234.50
2022-09-22T10:13:56.058Z,101216.78
2022-09-22T10:17:58.053Z,101213.66
2022-09-22T10:22:24.547Z,101208.13
2022-09-22T10:26:30.884Z,101212.88
2022-09-22T10:30:33.172Z,101198.56
2022-09-22T10:34:41.711Z,101197.19
2022-09-22T10:38:43.856Z,101195.69
2022-09-22T10:42:46.028Z,101183.88
2022-09-22T10:47:31.053Z,101173.81
2022-09-22T10:51:54.814Z,101179.28
2022-09-22T10:56:09.369Z,101171.13
2022-09-22T11:00:18.149Z,101168.88
2022-09-22T11:04:53.734Z,101169.13
2022-09-22T11:09:20.801Z,101152.06
2022-09-22T11:13:28.576Z,101150.50
2022-09-22T11:17:45.258Z,101147.41
2022-09-22T11:22:28.703Z,101144.28
2022-09-22T11:26:50.592Z,101147.13
2022-09-22T11:30:53.281Z,101137.78
2022-09-22T11:35:21.274Z,101131.91
2022-09-22T11:39:25.458Z,101136.44
2022-09-22T11:44:05.454Z,101128.84
2022-09-22T11:48:26.135Z,101128.97
2022-09-22T11:52:58.561Z,101112.94
2022-09-22T11:57:08.606Z,101103.75
2022-09-22T12:01:14.902Z,101103.25
2022-09-22T12:05:26.954Z,101091.38
2022-09-22T12:09:35.830Z,101089.00
2022-09-22T12:13:43.652Z,101089.03
2022-09-22T12:18:34.658Z,101077.19
2022-09-22T12:23:21.742Z,101077.31
2022-09-22T12:27:26.015Z,101069.69
2022-09-22T12:31:39.961Z,101069.06
2022-09-22T12:35:44.066Z,101065.72
2022-09-22T12:39:49.672Z,101070.19
2022-09-22T12:43:51.122Z,101057.41
2022-09-22T12:47:54.193Z,101054.22
2022-09-22T12:51:55.915Z,101049.13
2022-09-22T12:55:58.219Z,101046.69
2022-09-22T13:00:13.145Z,101038.28
2022-09-22T13:04:17.386Z,101033.22
2022-09-22T13:08:25.670Z,101035.13
2022-09-22T13:12:28.163Z,101018.78
2022-09-22T13:16:29.687Z,101018.88
2022-09-22T13:20:33.312Z,101021.56
2022-09-22T13:24:34.834Z,101019.91
2022-09-22T13:28:36.369Z,101007.03
2022-09-22T13:32:38.471Z,101007.94
2022-09-22T13:36:42.805Z,101002.94
2022-09-22T13:40:48.268Z,100998.66
2022-09-22T13:45:18.438Z,100990.97
2022-09-22T13:49:40.944Z,100987.63
2022-09-22T13:53:51.153Z,100977.31
2022-09-22T13:57:56.145Z,100977.34
2022-09-22T14:02:06.019Z,100973.03
2022-09-22T14:06:14.372Z,100964.34
2022-09-22T14:10:19.172Z,100957.50
2022-09-22T14:14:26.336Z,100963.63
2022-09-22T14:18:29.976Z,100954.97
2022-09-22T14:22:33.431Z,100947.16
2022-09-22T14:26:38.798Z,100946.28
2022-09-22T14:30:42.433Z,100935.09
2022-09-22T14:34:49.562Z,100938.56
2022-09-22T14:39:07.994Z,100926.44
2022-09-22T14:43:42.242Z,100927.28
2022-09-22T14:47:44.505Z,100929.03
2022-09-22T14:51:47.799Z,100925.59
2022-09-22T14:55:53.205Z,100912.56
2022-09-22T15:00:18.490Z,100908.22
2022-09-22T15:04:26.534Z,100904.75
2022-09-22T15:08:28.814Z,100903.91
2022-09-22T15:12:46.209Z,100891.72
2022-09-22T15:16:50.847Z,100898.66
2022-09-22T15:20:57.270Z,100898.69
2022-09-22T15:24:58.983Z,100900.41
2022-09-22T15:29:01.284Z,100899.53
2022-09-22T15:33:03.724Z,100899.56
2022-09-22T15:37:05.284Z,100892.59
2022-09-22T15:41:12.946Z,100890.00
2022-09-22T15:45:18.616Z,100883.91
2022-09-22T15:49:24.975Z,100880.44
2022-09-22T15:53:26.724Z,100883.91
2022-09-22T15:57:28.446Z,100882.16
2022-09-22T16:01:29.985Z,100876.06
2022-09-22T16:05:33.198Z,100876.09
2022-09-22T16:09:35.339Z,100882.97
2022-09-22T16:13:38.537Z,100871.66
2022-09-22T16:17:44.857Z,100865.56
2022-09-22T16:21:51.762Z,100863.78
2022-09-22T16:25:53.934Z,100862.03
2022-09-22T16:29:56.635Z,100854.16
2022-09-22T16:34:00.764Z,100868.75
2022-09-22T16:38:02.313Z,100877.25
2022-09-22T16:42:03.934Z,100873.53
2022-09-22T16:46:23.865Z,100874.16
2022-09-22T16:50:25.608Z,100885.13
2022-09-22T16:54:27.206Z,100871.94
2022-09-22T16:58:28.876Z,100875.19
2022-09-22T17:02:30.388Z,100883.63
2022-09-22T17:06:31.936Z,100878.25
2022-09-22T17:10:35.489Z,100881.53
2022-09-22T17:14:37.114Z,100880.44
2022-09-22T17:18:41.829Z,100887.16
2022-09-22T17:22:44.281Z,100879.16
2022-09-22T17:26:49.012Z,100883.25
2022-09-22T17:30:57.915Z,100878.72
2022-09-22T17:34:59.869Z,100890.63
2022-09-22T17:39:01.623Z,100890.44
2022-09-22T17:43:04.161Z,100882.47
2022-09-22T17:47:24.297Z,100884.03
2022-09-22T17:51:47.329Z,100882.06
2022-09-22T17:55:48.831Z,100888.75
2022-09-22T17:59:51.169Z,100895.50
2022-09-22T18:03:53.769Z,100880.63
2022-09-22T18:07:58.513Z,100891.78
2022-09-22T18:12:01.065Z,100889.03
2022-09-22T18:16:33.259Z,100897.44
2022-09-22T18:20:34.804Z,100889.47
2022-09-22T18:24:37.766Z,100890.22
2022-09-22T18:28:40.594Z,100891.84
2022-09-22T18:32:42.113Z,100906.31
2022-09-22T18:36:45.318Z,100898.44
2022-09-22T18:40:46.841Z,100896.59
2022-09-22T18:44:48.438Z,100896.41
2022-09-22T18:48:57.350Z,100910.06
2022-09-22T18:52:58.911Z,100909.03
2022-09-22T18:57:03.603Z,100903.72
2022-09-22T19:01:06.174Z,100907.81
2022-09-22T19:05:08.196Z,100911.97
2022-09-22T19:09:09.703Z,100916.09
2022-09-22T19:13:12.324Z,100918.53
2022-09-22T19:17:17.243Z,100908.13
2022-09-22T19:21:18.734Z,100916.56
2022-09-22T19:25:21.862Z,100918.13
2022-09-22T19:29:23.560Z,100916.25
2022-09-22T19:33:25.301Z,100913.47
2022-09-22T19:37:29.091Z,100912.47
2022-09-22T19:41:30.626Z,100903.72
2022-09-22T19:45:32.165Z,100904.44
2022-09-22T19:49:33.673Z,100913.75
2022-09-22T19:53:35.164Z,100907.56
2022-09-22T19:57:40.093Z,100903.97
2022-09-22T20:01:43.029Z,100908.97
2022-09-22T20:05:46.152Z,100909.63
2022-09-22T20:09:47.706Z,100915.47
2022-09-22T20:14:07.668Z,100912.69
2022-09-22T20:18:09.926Z,100904.72
2022-09-22T20:22:29.106Z,100907.13
2022-09-22T20:26:31.647Z,100899.25
2022-09-22T20:30:33.203Z,100899.97
2022-09-22T20:34:34.759Z,100902.38
2022-09-22T20:38:36.431Z,100900.44
2022-09-22T20:42:37.918Z,100896.03
2022-09-22T20:46:40.580Z,100896.66
2022-09-22T20:50:42.125Z,100900.69
2022-09-22T20:54:44.790Z,100889.41
2022-09-22T20:58:47.356Z,100892.75
2022-09-22T21:02:49.087Z,100890.88
2022-09-22T21:06:50.626Z,100886.38
2022-09-22T21:10:52.245Z,100887.91
2022-09-22T21:14:53.838Z,100886.91
2022-09-22T21:18:55.884Z,100882.50
2022-09-22T21:22:57.752Z,100882.34
2022-09-22T21:26:59.681Z,100876.19
2022-09-22T21:31:03.944Z,100876.94
2022-09-22T21:35:06.109Z,100866.50
2022-09-22T21:39:07.766Z,100869.81
2022-09-22T21:43:09.285Z,100872.22
2022-09-22T21:47:11.594Z,100866.88
2022-09-22T21:51:21.783Z,100869.28
2022-09-22T21:55:23.362Z,100861.47
2022-09-22T21:59:24.902Z,100859.63
2022-09-22T22:03:32.599Z,100857.75
2022-09-22T22:07:34.329Z,100848.94
2022-09-22T22:11:43.371Z,100850.47
2022-09-22T22:15:48.124Z,100837.59
2022-09-22T22:19:49.898Z,100848.69
2022-09-22T22:23:53.320Z,100843.50
2022-09-22T22:27:55.674Z,100845.97
2022-09-22T22:31:57.871Z,100841.53
2022-09-22T22:35:59.413Z,100834.59
2022-09-22T22:40:01.258Z,100841.34
2022-09-22T22:44:03.161Z,100837.03
2022-09-22T22:48:04.673Z,100841.28
2022-09-22T22:52:06.175Z,100842.22
2022-09-22T22:56:11.492Z,100842.19
2022-09-22T23:00:13.129Z,100842.94
2022-09-22T23:04:16.489Z,100844.66
2022-09-22T23:08:18.032Z,100843.72
2022-09-22T23:12:19.531Z,100842.78
2022-09-22T23:16:23.733Z,100840.19
2022-09-22T23:20:25.783Z,100834.88
2022-09-22T23:24:27.436Z,100829.53
2022-09-22T23:28:30.722Z,100831.94
2022-09-22T23:32:32.266Z,100820.69
2022-09-22T23:36:33.793Z,100826.50
2022-09-22T23:40:35.461Z,100815.28
2022-09-22T23:44:37.025Z,100813.44
2022-09-22T23:48:38.575Z,100813.44
2022-09-22T23:52:40.125Z,100809.13
2022-09-22T23:56:41.714Z,100805.59
